Time;durP1;ratioP1;P1;durP2;ratioP2;P2;SDS_P1;SDS_P2;PMS_P1;PMS_P2;Temp;Humidity;BMP_temperature;BMP_pressure;BME280_temperature;BME280_humidity;BME280_pressure;Samples;Min_cycle;Max_cycle;Signal;HPM_P1;HPM_P2
2020/12/31 00:00:02;;;;;;;18.17;14.97;;;2.00;99.90;;;;;;5035983;28;20183;-59
2020/12/31 00:02:27;;;;;;;17.03;13.60;;;2.10;99.90;;;;;;5035089;28;20656;-58
2020/12/31 00:04:53;;;;;;;15.47;12.57;;;2.30;99.90;;;;;;5016730;28;20442;-57
2020/12/31 00:07:20;;;;;;;14.77;12.53;;;2.40;99.90;;;;;;5034960;28;20645;-59
2020/12/31 00:09:45;;;;;;;15.90;12.70;;;2.40;99.90;;;;;;5035177;28;20207;-60
2020/12/31 00:12:12;;;;;;;15.23;12.83;;;2.50;99.90;;;;;;5035272;28;20419;-54
2020/12/31 00:14:38;;;;;;;15.47;13.03;;;2.50;99.90;;;;;;5034654;28;20734;-59
2020/12/31 00:17:03;;;;;;;20.80;17.67;;;2.50;99.90;;;;;;5034937;28;20414;-54
2020/12/31 00:19:29;;;;;;;21.13;17.20;;;2.60;99.90;;;;;;5034924;28;20192;-60
2020/12/31 00:21:54;;;;;;;20.87;16.07;;;2.70;99.90;;;;;;5034800;28;20226;-59
2020/12/31 00:24:20;;;;;;;15.53;12.43;;;2.70;99.90;;;;;;5035023;28;20184;-57
2020/12/31 00:26:46;;;;;;;15.17;13.57;;;2.70;99.90;;;;;;5035258;28;20183;-58
2020/12/31 00:29:12;;;;;;;16.20;12.43;;;2.70;99.90;;;;;;5035549;28;20600;-56
2020/12/31 00:31:38;;;;;;;14.70;12.57;;;2.60;99.90;;;;;;5035079;28;20422;-58
2020/12/31 00:34:05;;;;;;;13.13;11.63;;;2.40;99.90;;;;;;5031600;28;20227;-59
2020/12/31 00:36:30;;;;;;;14.50;11.90;;;2.30;99.90;;;;;;5034712;28;20187;-57
2020/12/31 00:38:56;;;;;;;14.43;11.37;;;2.30;99.90;;;;;;5033755;28;20450;-59
2020/12/31 00:41:22;;;;;;;14.40;11.07;;;2.30;99.90;;;;;;5032495;28;20195;-58
2020/12/31 00:43:48;;;;;;;14.00;11.00;;;2.30;99.90;;;;;;5034159;28;20175;-58
2020/12/31 00:46:14;;;;;;;13.30;10.83;;;2.40;99.90;;;;;;5034357;28;20175;-56
2020/12/31 00:48:40;;;;;;;14.07;11.33;;;2.40;99.90;;;;;;5032111;28;20454;-57
2020/12/31 00:51:06;;;;;;;13.13;11.03;;;2.50;99.90;;;;;;5033435;28;20421;-59
2020/12/31 00:53:31;;;;;;;14.07;11.40;;;2.60;99.90;;;;;;5033399;28;20226;-57
2020/12/31 00:55:57;;;;;;;15.93;12.30;;;2.60;99.90;;;;;;5033948;28;20497;-59
2020/12/31 00:58:22;;;;;;;14.07;11.47;;;2.60;99.90;;;;;;5015399;28;20749;-58
2020/12/31 01:00:48;;;;;;;13.83;11.03;;;2.40;99.90;;;;;;5030390;28;20656;-57
2020/12/31 01:03:14;;;;;;;16.23;12.33;;;2.40;99.90;;;;;;5033503;28;20214;-57
2020/12/31 01:05:39;;;;;;;13.83;11.30;;;2.40;99.90;;;;;;5033918;28;20223;-54
2020/12/31 01:08:05;;;;;;;13.50;11.77;;;2.40;99.90;;;;;;5033412;28;20430;-54
2020/12/31 01:10:31;;;;;;;15.67;12.63;;;2.50;99.90;;;;;;5034119;28;20172;-53
2020/12/31 01:12:57;;;;;;;13.20;11.03;;;2.40;99.90;;;;;;5033839;28;20195;-58
2020/12/31 01:15:22;;;;;;;15.33;11.57;;;2.40;99.90;;;;;;5033035;28;20505;-58
2020/12/31 01:17:48;;;;;;;12.93;10.87;;;2.50;99.90;;;;;;5033454;28;20203;-54
2020/12/31 01:20:14;;;;;;;12.57;10.53;;;2.50;99.90;;;;;;5033887;28;20527;-55
2020/12/31 01:22:39;;;;;;;15.37;11.70;;;2.40;99.90;;;;;;5034195;28;20195;-53
2020/12/31 01:25:05;;;;;;;13.57;12.10;;;2.40;99.90;;;;;;5033923;28;20183;-58
2020/12/31 01:27:32;;;;;;;16.43;13.20;;;2.50;99.90;;;;;;5034150;28;20183;-59
2020/12/31 01:29:58;;;;;;;14.03;11.50;;;2.50;99.90;;;;;;5034107;28;20421;-60
2020/12/31 01:32:24;;;;;;;13.27;11.57;;;2.60;99.90;;;;;;5033770;28;20414;-58
2020/12/31 01:34:51;;;;;;;13.90;11.50;;;2.60;99.90;;;;;;5033156;28;20427;-58
2020/12/31 01:37:18;;;;;;;14.77;11.60;;;2.70;99.90;;;;;;5033253;28;20794;-53
2020/12/31 01:39:45;;;;;;;14.07;11.30;;;2.80;99.90;;;;;;5033377;28;20422;-52
2020/12/31 01:42:10;;;;;;;13.53;11.93;;;2.80;99.90;;;;;;5033564;28;20403;-55
2020/12/31 01:44:36;;;;;;;13.90;11.80;;;2.80;99.90;;;;;;5032965;28;20444;-55
2020/12/31 01:47:02;;;;;;;13.33;11.27;;;2.90;99.90;;;;;;5033323;28;20706;-54
2020/12/31 01:49:30;;;;;;;15.67;11.77;;;2.90;99.90;;;;;;5033786;28;20270;-55
2020/12/31 01:51:57;;;;;;;12.83;11.43;;;3.00;99.90;;;;;;5034098;28;20236;-58
2020/12/31 01:54:24;;;;;;;14.03;11.13;;;3.00;99.90;;;;;;5033551;28;20856;-52
2020/12/31 01:56:52;;;;;;;14.93;10.50;;;3.10;99.90;;;;;;5033746;28;20410;-53
2020/12/31 01:59:18;;;;;;;12.10;10.40;;;3.10;99.90;;;;;;5033516;28;20419;-56
2020/12/31 02:01:44;;;;;;;13.63;10.67;;;3.20;99.90;;;;;;5033245;28;20418;-59
2020/12/31 02:04:09;;;;;;;13.33;11.17;;;3.10;99.90;;;;;;5033922;28;20208;-59
2020/12/31 02:06:36;;;;;;;13.00;10.50;;;3.10;99.90;;;;;;5033616;28;20164;-59
2020/12/31 02:09:02;;;;;;;13.53;11.57;;;3.10;99.90;;;;;;5032969;28;20547;-58
2020/12/31 02:11:28;;;;;;;13.23;11.10;;;2.90;99.90;;;;;;5033454;28;20414;-55
2020/12/31 02:13:54;;;;;;;13.43;11.73;;;2.90;99.90;;;;;;5032766;28;20478;-54
2020/12/31 02:16:33;;;;;;;14.93;12.20;;;3.00;99.90;;;;;;5033347;28;20171;-55
2020/12/31 02:19:01;;;;;;;13.60;11.37;;;3.00;99.90;;;;;;5033039;28;20433;-54
2020/12/31 02:21:28;;;;;;;13.77;11.07;;;3.00;99.90;;;;;;5033394;28;20410;-57
2020/12/31 02:23:54;;;;;;;14.17;11.43;;;2.90;99.90;;;;;;5028217;28;20434;-58
2020/12/31 02:26:27;;;;;;;12.90;10.80;;;2.80;99.90;;;;;;5029863;28;20945;-54
2020/12/31 02:28:53;;;;;;;12.93;10.70;;;2.80;99.90;;;;;;5026127;28;20443;-59
2020/12/31 02:31:20;;;;;;;14.30;11.57;;;2.90;99.90;;;;;;5016990;28;20911;-56
2020/12/31 02:33:50;;;;;;;14.07;11.60;;;2.90;99.90;;;;;;5033169;28;20493;-57
2020/12/31 02:36:18;;;;;;;12.00;10.70;;;2.90;99.90;;;;;;5036653;28;20410;-54
2020/12/31 02:38:44;;;;;;;16.07;13.60;;;2.80;99.90;;;;;;5036543;28;20434;-57
2020/12/31 02:41:10;;;;;;;14.17;11.77;;;2.60;99.90;;;;;;5036628;28;20488;-54
2020/12/31 02:43:36;;;;;;;13.27;11.00;;;2.30;99.90;;;;;;5036241;28;20462;-58
2020/12/31 02:46:03;;;;;;;14.43;12.53;;;1.90;99.90;;;;;;5036413;28;20262;-54
2020/12/31 02:48:28;;;;;;;26.40;15.27;;;1.70;99.90;;;;;;5036143;28;20517;-56
2020/12/31 02:50:54;;;;;;;18.67;14.50;;;1.60;99.90;;;;;;5036429;28;20501;-57
2020/12/31 02:53:19;;;;;;;20.17;14.97;;;1.40;99.90;;;;;;5036370;28;20297;-59
2020/12/31 02:55:45;;;;;;;17.53;13.87;;;1.40;99.90;;;;;;5036538;28;20208;-57
2020/12/31 02:58:11;;;;;;;17.93;14.00;;;1.50;99.90;;;;;;5035713;28;20212;-56
2020/12/31 03:00:36;;;;;;;16.40;13.20;;;1.70;99.90;;;;;;5036312;28;20655;-58
2020/12/31 03:03:02;;;;;;;18.80;14.40;;;1.80;99.90;;;;;;5035880;28;20656;-56
2020/12/31 03:05:27;;;;;;;16.67;13.50;;;1.90;99.90;;;;;;5036569;28;20180;-58
2020/12/31 03:07:53;;;;;;;16.30;13.43;;;2.10;99.90;;;;;;5036034;28;20207;-58
2020/12/31 03:10:18;;;;;;;16.17;13.00;;;2.10;99.90;;;;;;5036323;28;20179;-58
2020/12/31 03:12:44;;;;;;;15.20;12.57;;;2.20;99.90;;;;;;5035864;28;20551;-58
2020/12/31 03:15:11;;;;;;;17.37;12.90;;;2.30;99.90;;;;;;5035980;28;20576;-57
2020/12/31 03:17:38;;;;;;;14.67;12.40;;;2.40;99.90;;;;;;5036026;28;20706;-56
2020/12/31 03:20:07;;;;;;;14.07;11.17;;;2.50;99.90;;;;;;5035726;28;20421;-54
2020/12/31 03:22:33;;;;;;;12.93;10.47;;;2.60;99.90;;;;;;5036153;28;20413;-55
2020/12/31 03:24:59;;;;;;;14.67;12.07;;;2.70;99.90;;;;;;5035818;28;20411;-56
2020/12/31 03:27:24;;;;;;;14.00;10.63;;;2.70;99.90;;;;;;5034905;28;20472;-57
2020/12/31 03:29:50;;;;;;;14.40;10.97;;;2.60;99.90;;;;;;5035907;28;20171;-55
2020/12/31 03:32:16;;;;;;;14.10;11.50;;;2.70;99.90;;;;;;5035540;28;20183;-56
2020/12/31 03:34:42;;;;;;;13.90;11.67;;;2.70;99.90;;;;;;5035846;28;20175;-57
2020/12/31 03:37:08;;;;;;;11.30;10.10;;;2.60;99.90;;;;;;5035597;28;20407;-54
2020/12/31 03:39:33;;;;;;;12.23;10.80;;;2.70;99.90;;;;;;5035054;28;20223;-59
2020/12/31 03:41:59;;;;;;;13.83;10.77;;;2.70;99.90;;;;;;5035436;28;20171;-58
2020/12/31 03:44:24;;;;;;;12.87;10.90;;;2.70;99.90;;;;;;5035300;28;20180;-59
2020/12/31 03:46:50;;;;;;;13.90;11.10;;;2.70;99.90;;;;;;5035457;28;20168;-59
2020/12/31 03:49:15;;;;;;;13.30;10.90;;;2.70;99.90;;;;;;5035295;28;20219;-56
2020/12/31 03:51:41;;;;;;;14.17;11.07;;;2.80;99.90;;;;;;5035785;28;20191;-52
2020/12/31 03:54:06;;;;;;;13.37;10.47;;;2.80;99.90;;;;;;5032061;28;20583;-54
2020/12/31 03:56:32;;;;;;;12.57;10.60;;;2.80;99.90;;;;;;5034797;28;20194;-55
2020/12/31 03:58:57;;;;;;;12.03;10.23;;;2.80;99.90;;;;;;5031240;28;20210;-56
2020/12/31 04:01:30;;;;;;;14.07;10.73;;;2.80;99.90;;;;;;5034679;28;20183;-58
2020/12/31 04:03:55;;;;;;;12.27;10.00;;;2.90;99.90;;;;;;5034613;28;20226;-54
2020/12/31 04:06:21;;;;;;;14.50;10.57;;;3.00;99.90;;;;;;5034596;28;20485;-56
2020/12/31 04:08:46;;;;;;;12.17;10.63;;;3.10;99.90;;;;;;5032686;28;20200;-57
2020/12/31 04:11:12;;;;;;;14.67;10.43;;;3.20;99.90;;;;;;5030040;28;20187;-59
2020/12/31 04:13:38;;;;;;;12.07;10.43;;;3.30;99.90;;;;;;5021201;28;20208;-58
2020/12/31 04:16:03;;;;;;;12.70;9.93;;;3.30;99.90;;;;;;5034779;28;20524;-59
2020/12/31 04:18:29;;;;;;;12.67;10.03;;;3.40;99.90;;;;;;5034456;28;20238;-58
2020/12/31 04:20:54;;;;;;;12.27;10.33;;;3.40;99.90;;;;;;5034903;28;20210;-57
2020/12/31 04:23:20;;;;;;;13.03;10.73;;;3.40;99.90;;;;;;5034590;28;20188;-59
2020/12/31 04:25:48;;;;;;;13.90;11.00;;;3.30;99.90;;;;;;5034609;28;20187;-56
2020/12/31 04:28:13;;;;;;;10.97;9.73;;;3.20;99.90;;;;;;5034411;28;20660;-52
2020/12/31 04:30:39;;;;;;;11.77;10.03;;;3.10;99.90;;;;;;5034581;28;20411;-57
2020/12/31 04:33:04;;;;;;;11.47;9.67;;;3.10;99.90;;;;;;5034166;28;20223;-54
2020/12/31 04:35:30;;;;;;;10.97;9.87;;;3.20;99.90;;;;;;5034502;28;20230;-56
2020/12/31 04:37:55;;;;;;;11.47;10.03;;;3.20;99.90;;;;;;5034040;28;20195;-57
2020/12/31 04:40:21;;;;;;;12.63;10.33;;;3.10;99.90;;;;;;5034565;28;20184;-59
2020/12/31 04:42:50;;;;;;;13.00;10.57;;;3.10;99.90;;;;;;5034455;28;20179;-55
2020/12/31 04:45:18;;;;;;;12.37;10.13;;;3.00;99.90;;;;;;5014373;28;20189;-57
2020/12/31 04:48:09;;;;;;;13.73;10.17;;;3.00;99.90;;;;;;5014598;28;20439;-53
2020/12/31 04:50:39;;;;;;;11.47;10.13;;;3.00;99.90;;;;;;4985841;28;20973;-56
2020/12/31 04:53:10;;;;;;;12.83;10.47;;;2.90;99.90;;;;;;5014565;28;20447;-58
2020/12/31 04:55:53;;;;;;;13.20;11.00;;;2.90;99.90;;;;;;5014493;28;20823;-58
2020/12/31 04:58:19;;;;;;;11.77;9.83;;;2.80;99.90;;;;;;5014737;28;20791;-59
2020/12/31 05:00:46;;;;;;;13.80;11.10;;;2.60;99.90;;;;;;5014325;28;20934;-58
2020/12/31 05:03:11;;;;;;;13.77;11.53;;;2.50;99.90;;;;;;5014310;28;20196;-53
2020/12/31 05:05:38;;;;;;;14.13;11.53;;;2.30;99.90;;;;;;5014630;28;20469;-54
2020/12/31 05:08:04;;;;;;;15.03;12.57;;;2.30;99.90;;;;;;5014052;28;20200;-57
2020/12/31 05:10:31;;;;;;;13.83;11.57;;;2.30;99.90;;;;;;5014377;28;20419;-56
2020/12/31 05:13:04;;;;;;;15.03;11.63;;;2.20;99.90;;;;;;5014180;28;20447;-59
2020/12/31 05:15:34;;;;;;;11.90;10.53;;;2.30;99.90;;;;;;5014451;28;20557;-51
2020/12/31 05:18:15;;;;;;;14.27;11.00;;;2.30;99.90;;;;;;5022777;28;20437;-52
2020/12/31 05:20:43;;;;;;;14.90;11.60;;;2.30;99.90;;;;;;5034027;28;20464;-57
2020/12/31 05:23:10;;;;;;;12.80;10.43;;;2.20;99.90;;;;;;5033827;28;20415;-55
2020/12/31 05:25:35;;;;;;;14.77;10.97;;;2.10;99.90;;;;;;5033891;28;20417;-57
2020/12/31 05:28:01;;;;;;;13.27;11.30;;;2.20;99.90;;;;;;5033477;28;20434;-55
2020/12/31 05:30:28;;;;;;;13.20;11.10;;;2.10;99.90;;;;;;5034041;28;20183;-59
2020/12/31 05:33:04;;;;;;;13.17;10.73;;;2.10;99.90;;;;;;5031029;28;20458;-53
2020/12/31 05:35:29;;;;;;;16.20;11.30;;;2.10;99.90;;;;;;5033190;28;20406;-58
2020/12/31 05:37:55;;;;;;;13.37;11.03;;;2.10;99.90;;;;;;5031798;28;20782;-57
2020/12/31 05:40:20;;;;;;;13.93;10.83;;;2.00;99.90;;;;;;5031767;28;20191;-52
2020/12/31 05:42:46;;;;;;;13.10;11.03;;;2.10;99.90;;;;;;5033300;28;20179;-59
2020/12/31 05:45:16;;;;;;;14.33;11.43;;;2.10;99.90;;;;;;4983116;28;20191;-57
2020/12/31 05:47:50;;;;;;;13.07;10.40;;;2.10;99.90;;;;;;5030477;28;20576;-60
2020/12/31 05:50:23;;;;;;;13.70;10.90;;;2.10;99.90;;;;;;5030852;28;20457;-54
2020/12/31 05:52:50;;;;;;;14.13;10.43;;;2.20;99.90;;;;;;5033303;28;20471;-53
2020/12/31 05:55:18;;;;;;;14.23;10.97;;;2.10;99.90;;;;;;5033757;28;20790;-58
2020/12/31 05:57:48;;;;;;;12.60;10.53;;;2.10;99.90;;;;;;5011792;28;20815;-56
2020/12/31 06:00:22;;;;;;;14.13;11.47;;;2.10;99.90;;;;;;5030837;28;20434;-59
2020/12/31 06:02:58;;;;;;;12.63;10.87;;;2.10;99.90;;;;;;5035997;28;20908;-59
2020/12/31 06:05:25;;;;;;;11.90;10.43;;;2.10;99.90;;;;;;5017187;28;20425;-52
2020/12/31 06:07:52;;;;;;;14.23;10.90;;;2.10;99.90;;;;;;5027545;28;20495;-59
2020/12/31 06:10:23;;;;;;;14.10;11.33;;;2.00;99.90;;;;;;5034626;28;20466;-56
2020/12/31 06:13:01;;;;;;;13.23;11.40;;;2.00;99.90;;;;;;5036785;28;20465;-57
2020/12/31 06:15:28;;;;;;;12.83;10.60;;;2.00;99.90;;;;;;5035959;28;20433;-54
2020/12/31 06:17:55;;;;;;;12.20;9.97;;;1.90;99.90;;;;;;5019915;28;20802;-57
2020/12/31 06:20:23;;;;;;;13.17;10.63;;;2.00;99.90;;;;;;5034796;28;20954;-59
2020/12/31 06:22:57;;;;;;;12.10;9.83;;;1.90;99.90;;;;;;5027169;28;20790;-51
2020/12/31 06:25:40;;;;;;;13.30;10.70;;;1.80;99.90;;;;;;5035070;28;20438;-57
2020/12/31 06:28:07;;;;;;;12.43;10.17;;;1.60;99.90;;;;;;5033459;28;20468;-53
2020/12/31 06:30:34;;;;;;;13.50;10.50;;;1.50;99.90;;;;;;5033803;28;20454;-57
2020/12/31 06:33:11;;;;;;;11.43;10.03;;;1.50;99.90;;;;;;5033402;28;20458;-55
2020/12/31 06:35:39;;;;;;;12.33;9.83;;;1.40;99.90;;;;;;5046521;28;20457;-55
2020/12/31 06:38:05;;;;;;;13.23;10.73;;;1.40;99.90;;;;;;5036350;28;20521;-57
2020/12/31 06:40:33;;;;;;;12.77;10.20;;;1.40;99.90;;;;;;5018298;28;20532;-55
2020/12/31 06:43:09;;;;;;;14.37;11.93;;;1.40;99.90;;;;;;5033341;28;20200;-58
2020/12/31 06:45:36;;;;;;;12.97;11.57;;;1.30;99.90;;;;;;5035132;28;20505;-55
2020/12/31 06:48:02;;;;;;;17.33;15.00;;;1.10;99.90;;;;;;5035073;28;20434;-56
2020/12/31 06:51:06;;;;;;;12.23;9.63;;;1.00;99.90;;;;;;5036208;28;20790;-55
2020/12/31 06:53:34;;;;;;;11.67;9.83;;;1.00;99.90;;;;;;5034514;28;20473;-59
2020/12/31 06:56:08;;;;;;;11.43;10.00;;;0.90;99.90;;;;;;5034751;28;20452;-57
2020/12/31 06:58:34;;;;;;;11.77;9.90;;;0.90;99.90;;;;;;5033204;28;20480;-52
2020/12/31 07:01:01;;;;;;;11.20;9.10;;;0.90;99.90;;;;;;5032796;28;20469;-56
2020/12/31 07:03:42;;;;;;;11.07;9.43;;;1.00;99.90;;;;;;5034364;28;20450;-55
2020/12/31 07:06:23;;;;;;;11.07;9.33;;;1.00;99.90;;;;;;5036047;28;20418;-58
2020/12/31 07:08:49;;;;;;;11.90;10.03;;;1.10;99.90;;;;;;5034720;28;20430;-54
2020/12/31 07:11:15;;;;;;;11.87;10.30;;;1.10;99.90;;;;;;5031622;28;20514;-54
2020/12/31 07:13:40;;;;;;;12.00;9.80;;;1.10;99.90;;;;;;5035061;28;20522;-51
2020/12/31 07:16:07;;;;;;;12.27;9.97;;;1.20;99.90;;;;;;5032672;28;20229;-55
2020/12/31 07:18:33;;;;;;;11.27;9.60;;;1.30;99.90;;;;;;5035530;28;20191;-53
2020/12/31 07:21:04;;;;;;;13.17;10.90;;;1.40;99.90;;;;;;5035060;28;20510;-52
2020/12/31 07:23:37;;;;;;;13.03;10.60;;;1.60;99.90;;;;;;5032062;28;20198;-53
2020/12/31 07:26:03;;;;;;;14.10;11.63;;;1.70;99.90;;;;;;5028323;28;20501;-57
2020/12/31 07:28:29;;;;;;;12.97;10.77;;;2.30;99.90;;;;;;5032587;28;20526;-55
2020/12/31 07:30:54;;;;;;;14.03;11.43;;;1.80;99.90;;;;;;5035277;28;21160;-57
2020/12/31 07:33:36;;;;;;;13.50;11.10;;;1.80;99.90;;;;;;5035708;28;20294;-56
2020/12/31 07:36:14;;;;;;;13.43;10.97;;;1.90;99.90;;;;;;5034299;28;20547;-52
2020/12/31 07:38:41;;;;;;;12.67;11.20;;;2.00;99.90;;;;;;5035021;28;20465;-58
2020/12/31 07:41:12;;;;;;;14.00;11.23;;;2.10;99.90;;;;;;5036719;28;20406;-52
2020/12/31 07:43:38;;;;;;;13.50;11.20;;;2.30;99.90;;;;;;5034306;28;20779;-53
2020/12/31 07:46:04;;;;;;;13.70;11.00;;;2.40;99.90;;;;;;5034369;28;20850;-53
2020/12/31 07:48:31;;;;;;;13.90;11.83;;;2.60;99.90;;;;;;5034093;28;20199;-57
2020/12/31 07:50:58;;;;;;;12.87;10.93;;;2.80;99.90;;;;;;5035175;28;20489;-57
2020/12/31 07:53:24;;;;;;;13.60;11.43;;;2.80;99.90;;;;;;5035297;28;20767;-53
2020/12/31 07:55:51;;;;;;;13.07;11.17;;;2.90;99.90;;;;;;5035198;28;20415;-55
2020/12/31 07:58:22;;;;;;;13.07;10.43;;;3.00;99.90;;;;;;5034562;28;20438;-57
2020/12/31 08:01:04;;;;;;;13.37;11.43;;;3.00;99.90;;;;;;5036153;28;20429;-55
2020/12/31 08:03:30;;;;;;;12.80;10.87;;;3.00;99.90;;;;;;5017385;28;20434;-58
2020/12/31 08:06:03;;;;;;;13.20;11.23;;;3.00;99.90;;;;;;5033999;28;20552;-58
2020/12/31 08:08:29;;;;;;;11.93;10.30;;;3.20;99.90;;;;;;5034061;28;20192;-57
2020/12/31 08:10:55;;;;;;;10.33;9.07;;;3.60;99.90;;;;;;5034464;28;20410;-59
2020/12/31 08:13:21;;;;;;;10.73;8.97;;;4.20;99.90;;;;;;5033614;28;20474;-60
2020/12/31 08:15:51;;;;;;;9.80;8.60;;;5.20;99.90;;;;;;5034674;28;20222;-56
2020/12/31 08:18:21;;;;;;;10.23;8.97;;;6.30;99.90;;;;;;5033348;28;20203;-57
2020/12/31 08:20:49;;;;;;;9.27;8.07;;;7.90;99.90;;;;;;5033984;28;20187;-58
2020/12/31 08:23:27;;;;;;;7.93;7.13;;;9.60;99.90;;;;;;5034160;28;20171;-57
2020/12/31 08:25:56;;;;;;;8.37;7.57;;;11.80;99.90;;;;;;5033704;28;20176;-58
2020/12/31 08:28:22;;;;;;;8.03;7.20;;;13.70;97.20;;;;;;5032882;28;20208;-56
2020/12/31 08:30:48;;;;;;;8.77;7.20;;;15.00;93.90;;;;;;5032838;28;20219;-59
2020/12/31 08:33:25;;;;;;;8.53;7.70;;;15.90;91.40;;;;;;5033303;28;20198;-54
2020/12/31 08:35:52;;;;;;;8.77;7.97;;;15.80;89.40;;;;;;5034288;28;20173;-58
2020/12/31 08:38:22;;;;;;;9.13;8.23;;;15.40;88.80;;;;;;5033403;28;20201;-57
2020/12/31 08:40:53;;;;;;;8.83;7.93;;;15.00;88.70;;;;;;5033930;28;20222;-58
2020/12/31 08:43:25;;;;;;;8.90;8.00;;;14.30;89.70;;;;;;5033187;28;20196;-59
2020/12/31 08:45:52;;;;;;;8.67;7.77;;;14.00;90.30;;;;;;5030091;28;20164;-55
2020/12/31 08:48:28;;;;;;;9.47;8.47;;;13.80;90.70;;;;;;5033763;28;20283;-59
2020/12/31 08:51:11;;;;;;;9.37;8.40;;;14.10;90.80;;;;;;5033489;28;20175;-58
2020/12/31 08:53:54;;;;;;;8.40;7.50;;;14.50;90.00;;;;;;5033926;28;20205;-57
2020/12/31 08:56:21;;;;;;;8.67;7.77;;;14.60;89.50;;;;;;5033382;28;20655;-55
2020/12/31 08:58:47;;;;;;;9.40;8.40;;;14.70;89.40;;;;;;5033031;28;20686;-58
2020/12/31 09:01:26;;;;;;;9.43;8.50;;;15.00;88.20;;;;;;5032629;28;20643;-57
2020/12/31 09:04:05;;;;;;;8.77;7.73;;;15.00;88.40;;;;;;5031704;28;20199;-58
2020/12/31 09:06:31;;;;;;;8.30;7.50;;;16.10;87.60;;;;;;5031683;28;20187;-60
2020/12/31 09:08:57;;;;;;;7.67;6.97;;;17.80;85.30;;;;;;5031184;28;20201;-55
2020/12/31 09:11:27;;;;;;;8.07;7.07;;;19.70;80.40;;;;;;5029475;28;20206;-57
2020/12/31 09:13:53;;;;;;;7.47;6.78;;;21.90;74.00;;;;;;5031320;28;20200;-56
2020/12/31 09:16:19;;;;;;;7.07;6.43;;;23.80;68.00;;;;;;5031953;28;20184;-60
2020/12/31 09:18:56;;;;;;;7.13;6.43;;;25.50;62.10;;;;;;4997479;28;20250;-60
2020/12/31 09:21:26;;;;;;;6.57;5.97;;;27.00;57.10;;;;;;5032884;28;20197;-59
2020/12/31 09:23:52;;;;;;;6.82;6.22;;;28.40;53.10;;;;;;5032118;28;20606;-61
2020/12/31 09:26:24;;;;;;;6.85;6.22;;;29.40;49.70;;;;;;5033306;28;20636;-59
2020/12/31 09:28:50;;;;;;;6.43;5.93;;;30.20;47.30;;;;;;5031422;28;20274;-60
2020/12/31 09:31:18;;;;;;;6.43;5.82;;;30.90;45.60;;;;;;5028761;28;20179;-57
2020/12/31 09:33:47;;;;;;;7.03;6.43;;;31.30;43.50;;;;;;5033097;28;20207;-58
2020/12/31 09:36:22;;;;;;;7.10;6.50;;;31.70;42.30;;;;;;5033117;28;20172;-60
2020/12/31 09:38:48;;;;;;;6.90;6.30;;;32.40;41.00;;;;;;5020964;28;20274;-60
2020/12/31 09:41:14;;;;;;;7.13;6.43;;;32.90;39.90;;;;;;5032539;28;20194;-60
2020/12/31 09:43:39;;;;;;;7.00;6.40;;;33.40;39.10;;;;;;5034127;28;20548;-55
2020/12/31 09:46:05;;;;;;;6.90;6.30;;;33.60;38.10;;;;;;5034899;28;20227;-55
2020/12/31 09:48:30;;;;;;;6.38;5.78;;;34.10;36.90;;;;;;5033120;28;20548;-57
2020/12/31 09:50:56;;;;;;;6.47;5.97;;;34.20;36.50;;;;;;5031376;28;20227;-59
2020/12/31 09:53:21;;;;;;;5.50;5.10;;;34.20;35.10;;;;;;5032954;28;20227;-59
2020/12/31 09:55:47;;;;;;;6.00;5.50;;;33.70;35.30;;;;;;5036335;28;20273;-60
2020/12/31 09:58:12;;;;;;;5.82;5.32;;;33.40;35.40;;;;;;5035092;28;20354;-60
2020/12/31 10:00:38;;;;;;;6.05;5.45;;;33.70;35.30;;;;;;5014817;28;20330;-58
2020/12/31 10:03:03;;;;;;;6.20;5.60;;;34.10;34.70;;;;;;5032203;28;20261;-56
2020/12/31 10:05:29;;;;;;;5.95;5.45;;;34.60;34.30;;;;;;5032406;28;20199;-56
2020/12/31 10:07:54;;;;;;;6.38;5.88;;;34.60;33.90;;;;;;5032963;28;20246;-60
2020/12/31 10:10:20;;;;;;;6.20;5.70;;;34.70;33.20;;;;;;5018002;28;20176;-61
2020/12/31 10:12:45;;;;;;;5.55;5.07;;;35.00;33.40;;;;;;5033399;28;20234;-60
2020/12/31 10:15:11;;;;;;;5.88;5.38;;;35.60;33.00;;;;;;5015947;28;20163;-59
2020/12/31 10:17:36;;;;;;;5.63;5.18;;;36.10;32.30;;;;;;5034086;28;20505;-61
2020/12/31 10:20:03;;;;;;;5.82;5.32;;;36.70;31.80;;;;;;5033349;28;20176;-59
2020/12/31 10:22:29;;;;;;;5.75;5.25;;;37.10;31.20;;;;;;5018192;28;20632;-61
2020/12/31 10:24:54;;;;;;;6.13;5.63;;;37.50;30.80;;;;;;5035730;28;20225;-61
2020/12/31 10:27:20;;;;;;;5.93;5.43;;;37.50;30.00;;;;;;5036952;28;20175;-59
2020/12/31 10:29:46;;;;;;;5.72;5.22;;;37.50;30.00;;;;;;5032695;28;20188;-59
2020/12/31 10:32:11;;;;;;;5.32;4.93;;;37.70;30.00;;;;;;5032778;28;20623;-59
2020/12/31 10:34:37;;;;;;;6.22;5.72;;;37.70;29.80;;;;;;5037883;28;20686;-59
2020/12/31 10:37:02;;;;;;;5.68;5.18;;;37.70;29.50;;;;;;5015095;28;20603;-59
2020/12/31 10:39:28;;;;;;;5.40;5.00;;;37.70;29.50;;;;;;5032282;28;20211;-59
2020/12/31 10:41:54;;;;;;;6.32;5.82;;;37.50;29.50;;;;;;5035607;28;20175;-59
2020/12/31 10:44:19;;;;;;;6.03;5.53;;;37.30;29.30;;;;;;5035488;28;20234;-61
2020/12/31 10:46:45;;;;;;;6.10;5.60;;;37.10;29.60;;;;;;5035361;28;20202;-61
2020/12/31 10:49:11;;;;;;;6.13;5.63;;;37.10;29.70;;;;;;5037687;28;20202;-59
2020/12/31 10:51:39;;;;;;;5.47;5.03;;;37.40;29.70;;;;;;5035244;28;20195;-61
2020/12/31 10:54:05;;;;;;;6.13;5.60;;;37.80;29.30;;;;;;5034802;28;20713;-59
2020/12/31 10:56:31;;;;;;;6.22;5.72;;;37.60;28.90;;;;;;5036831;28;20232;-62
2020/12/31 10:58:57;;;;;;;5.70;5.20;;;37.30;28.90;;;;;;5036656;28;20583;-60
2020/12/31 11:01:23;;;;;;;5.93;5.43;;;37.10;29.30;;;;;;5036447;28;20671;-59
2020/12/31 11:03:49;;;;;;;5.85;5.35;;;37.10;29.30;;;;;;5036920;28;20214;-63
2020/12/31 11:06:22;;;;;;;5.88;5.38;;;37.20;29.00;;;;;;5036544;28;20539;-63
2020/12/31 11:08:48;;;;;;;6.05;5.45;;;37.40;28.90;;;;;;5035665;28;20211;-61
2020/12/31 11:11:22;;;;;;;5.60;5.20;;;37.70;28.90;;;;;;5036288;28;20673;-63
2020/12/31 11:13:47;;;;;;;5.30;4.90;;;37.70;28.50;;;;;;5036026;28;20175;-59
2020/12/31 11:16:14;;;;;;;5.22;4.82;;;37.80;28.40;;;;;;5036268;28;20178;-63
2020/12/31 11:18:41;;;;;;;5.55;5.07;;;37.90;28.40;;;;;;5036385;28;20199;-59
2020/12/31 11:21:07;;;;;;;5.35;4.85;;;37.70;28.30;;;;;;5035560;28;20203;-63
2020/12/31 11:23:32;;;;;;;5.18;4.68;;;37.90;28.50;;;;;;5034916;28;20245;-60
2020/12/31 11:25:58;;;;;;;5.10;4.70;;;38.10;28.20;;;;;;5036446;28;20191;-62
2020/12/31 11:28:24;;;;;;;4.97;4.47;;;38.40;27.90;;;;;;5035563;28;20195;-63
2020/12/31 11:30:49;;;;;;;5.45;5.05;;;38.30;27.80;;;;;;5033354;28;20180;-59
2020/12/31 11:33:15;;;;;;;4.55;4.25;;;38.00;27.60;;;;;;5035032;28;20195;-62
2020/12/31 11:35:41;;;;;;;5.68;5.18;;;37.70;28.00;;;;;;5018339;28;20229;-63
2020/12/31 11:38:06;;;;;;;4.72;4.32;;;37.60;27.90;;;;;;5035254;28;20547;-60
2020/12/31 11:40:32;;;;;;;5.25;4.85;;;37.50;28.20;;;;;;5035153;28;20202;-62
2020/12/31 11:42:57;;;;;;;5.03;4.63;;;37.30;27.90;;;;;;5035636;28;20535;-62
2020/12/31 11:45:23;;;;;;;4.75;4.35;;;36.80;28.30;;;;;;5035564;28;20523;-62
2020/12/31 11:47:48;;;;;;;5.13;4.72;;;36.80;28.30;;;;;;5035157;28;20540;-63
2020/12/31 11:50:14;;;;;;;4.95;4.55;;;36.40;28.40;;;;;;5035859;28;20188;-63
2020/12/31 11:52:40;;;;;;;5.25;4.85;;;36.30;28.50;;;;;;5037534;28;20175;-61
2020/12/31 11:55:06;;;;;;;5.25;4.80;;;36.00;28.40;;;;;;5035358;28;20179;-61
2020/12/31 11:57:31;;;;;;;4.50;4.20;;;36.00;28.50;;;;;;5035020;28;20243;-63
2020/12/31 11:59:57;;;;;;;4.80;4.43;;;36.00;28.40;;;;;;5037003;28;20622;-63
2020/12/31 12:02:22;;;;;;;5.40;4.97;;;35.90;28.50;;;;;;5036075;28;20178;-61
2020/12/31 12:04:48;;;;;;;5.18;4.78;;;35.70;28.80;;;;;;5038142;28;20215;-62
2020/12/31 12:07:13;;;;;;;4.95;4.55;;;35.20;28.40;;;;;;5036340;28;20187;-61
2020/12/31 12:09:39;;;;;;;4.93;4.53;;;34.50;28.90;;;;;;5035407;28;20190;-63
2020/12/31 12:12:08;;;;;;;4.50;4.20;;;34.20;29.30;;;;;;5034944;28;20176;-63
2020/12/31 12:14:34;;;;;;;4.85;4.47;;;34.20;29.40;;;;;;5035051;28;20267;-60
2020/12/31 12:17:01;;;;;;;5.30;4.90;;;33.70;29.30;;;;;;5034617;28;20204;-60
2020/12/31 12:19:27;;;;;;;4.55;4.25;;;33.20;29.60;;;;;;5035843;28;20200;-59
2020/12/31 12:22:00;;;;;;;5.10;4.70;;;32.80;29.80;;;;;;5035941;28;20198;-59
2020/12/31 12:24:28;;;;;;;5.25;4.85;;;33.00;30.10;;;;;;5034731;28;20672;-62
2020/12/31 12:26:55;;;;;;;11.70;10.60;;;33.20;29.90;;;;;;5035833;28;20176;-62
2020/12/31 12:29:20;;;;;;;11.95;10.75;;;33.30;30.30;;;;;;5035173;28;20200;-59
2020/12/31 12:31:46;;;;;;;5.00;4.60;;;33.40;30.20;;;;;;5034872;28;20195;-63
2020/12/31 12:34:12;;;;;;;4.80;4.40;;;33.30;29.50;;;;;;5034700;28;20188;-59
2020/12/31 12:36:38;;;;;;;4.57;4.18;;;32.90;29.80;;;;;;5034414;28;20193;-62
2020/12/31 12:39:07;;;;;;;5.20;4.70;;;32.50;30.00;;;;;;5033987;28;20199;-60
2020/12/31 12:41:33;;;;;;;5.13;4.63;;;32.30;30.10;;;;;;5034823;28;20183;-60